sensor_id;sensor_type;location;lat;lon;timestamp;temperature;humidity
52044;DHT22;38053;53.100;6.078;2022-08-19T00:01:08;15.70;99.90
52044;DHT22;38053;53.100;6.078;2022-08-19T00:03:34;15.60;99.90
52044;DHT22;38053;53.100;6.078;2022-08-19T00:06:00;15.60;99.90
52044;DHT22;38053;53.100;6.078;2022-08-19T00:08:26;15.60;99.90
52044;DHT22;38053;53.100;6.078;2022-08-19T00:10:51;15.50;99.90
52044;DHT22;38053;53.100;6.078;2022-08-19T00:13:17;15.50;99.90
52044;DHT22;38053;53.100;6.078;2022-08-19T00:15:44;15.50;99.90
52044;DHT22;38053;53.100;6.078;2022-08-19T00:18:10;15.50;99.90
52044;DHT22;38053;53.100;6.078;2022-08-19T00:20:36;15.40;99.90
52044;DHT22;38053;53.100;6.078;2022-08-19T00:23:06;15.40;99.90
52044;DHT22;38053;53.100;6.078;2022-08-19T00:25:31;15.40;99.90
52044;DHT22;38053;53.100;6.078;2022-08-19T00:27:58;15.40;99.90
52044;DHT22;38053;53.100;6.078;2022-08-19T00:30:25;15.30;99.90
52044;DHT22;38053;53.100;6.078;2022-08-19T00:32:53;15.30;99.90
52044;DHT22;38053;53.100;6.078;2022-08-19T00:35:20;15.30;99.90
52044;DHT22;38053;53.100;6.078;2022-08-19T00:37:49;15.30;99.90
52044;DHT22;38053;53.100;6.078;2022-08-19T00:40:16;15.30;99.90
52044;DHT22;38053;53.100;6.078;2022-08-19T00:42:43;15.20;99.90
52044;DHT22;38053;53.100;6.078;2022-08-19T00:45:22;15.20;99.90
52044;DHT22;38053;53.100;6.078;2022-08-19T00:47:48;15.20;99.90
52044;DHT22;38053;53.100;6.078;2022-08-19T00:50:17;15.20;99.90
52044;DHT22;38053;53.100;6.078;2022-08-19T00:52:46;15.20;99.90
52044;DHT22;38053;53.100;6.078;2022-08-19T00:55:21;15.10;99.90
52044;DHT22;38053;53.100;6.078;2022-08-19T00:57:59;15.10;99.90
52044;DHT22;38053;53.100;6.078;2022-08-19T01:00:27;15.10;99.90
52044;DHT22;38053;53.100;6.078;2022-08-19T01:02:53;15.00;99.90
52044;DHT22;38053;53.100;6.078;2022-08-19T01:05:27;15.00;99.90
52044;DHT22;38053;53.100;6.078;2022-08-19T01:07:56;15.00;99.90
52044;DHT22;38053;53.100;6.078;2022-08-19T01:10:27;15.00;99.90
52044;DHT22;38053;53.100;6.078;2022-08-19T01:12:55;15.00;99.90
52044;DHT22;38053;53.100;6.078;2022-08-19T01:15:30;15.00;99.90
52044;DHT22;38053;53.100;6.078;2022-08-19T01:17:57;15.00;99.90
52044;DHT22;38053;53.100;6.078;2022-08-19T01:20:24;14.90;99.90
52044;DHT22;38053;53.100;6.078;2022-08-19T01:22:56;15.00;99.90
52044;DHT22;38053;53.100;6.078;2022-08-19T01:25:29;14.90;99.90
52044;DHT22;38053;53.100;6.078;2022-08-19T01:27:55;14.90;99.90
52044;DHT22;38053;53.100;6.078;2022-08-19T01:30:34;14.90;99.90
52044;DHT22;38053;53.100;6.078;2022-08-19T01:33:00;14.90;99.90
52044;DHT22;38053;53.100;6.078;2022-08-19T01:35:28;14.90;99.90
52044;DHT22;38053;53.100;6.078;2022-08-19T01:38:00;14.90;99.90
52044;DHT22;38053;53.100;6.078;2022-08-19T01:40:30;14.90;99.90
52044;DHT22;38053;53.100;6.078;2022-08-19T01:42:57;14.90;99.90
52044;DHT22;38053;53.100;6.078;2022-08-19T01:45:25;14.90;99.90
52044;DHT22;38053;53.100;6.078;2022-08-19T01:47:51;14.80;99.90
52044;DHT22;38053;53.100;6.078;2022-08-19T01:50:17;14.80;99.90
52044;DHT22;38053;53.100;6.078;2022-08-19T01:52:44;14.80;99.90
52044;DHT22;38053;53.100;6.078;2022-08-19T01:55:13;14.80;99.90
52044;DHT22;38053;53.100;6.078;2022-08-19T01:57:41;14.80;99.90
52044;DHT22;38053;53.100;6.078;2022-08-19T02:00:11;14.70;99.90
52044;DHT22;38053;53.100;6.078;2022-08-19T02:02:37;14.70;99.90
52044;DHT22;38053;53.100;6.078;2022-08-19T02:05:04;14.70;99.90
52044;DHT22;38053;53.100;6.078;2022-08-19T02:07:30;14.70;99.90
52044;DHT22;38053;53.100;6.078;2022-08-19T02:09:55;14.70;99.90
52044;DHT22;38053;53.100;6.078;2022-08-19T02:12:21;14.70;99.90
52044;DHT22;38053;53.100;6.078;2022-08-19T02:14:47;14.60;99.90
52044;DHT22;38053;53.100;6.078;2022-08-19T02:17:13;14.60;99.90
52044;DHT22;38053;53.100;6.078;2022-08-19T02:19:39;14.60;99.90
52044;DHT22;38053;53.100;6.078;2022-08-19T02:22:05;14.60;99.90
52044;DHT22;38053;53.100;6.078;2022-08-19T02:24:30;14.50;99.90
52044;DHT22;38053;53.100;6.078;2022-08-19T02:26:56;14.50;99.90
52044;DHT22;38053;53.100;6.078;2022-08-19T02:29:22;14.50;99.90
52044;DHT22;38053;53.100;6.078;2022-08-19T02:31:48;14.50;99.90
52044;DHT22;38053;53.100;6.078;2022-08-19T02:34:14;14.50;99.90
52044;DHT22;38053;53.100;6.078;2022-08-19T02:36:39;14.50;99.90
52044;DHT22;38053;53.100;6.078;2022-08-19T02:39:05;14.50;99.90
52044;DHT22;38053;53.100;6.078;2022-08-19T02:41:32;14.40;99.90
52044;DHT22;38053;53.100;6.078;2022-08-19T02:44:00;14.40;99.90
52044;DHT22;38053;53.100;6.078;2022-08-19T02:46:31;14.40;99.90
52044;DHT22;38053;53.100;6.078;2022-08-19T02:49:02;14.40;99.90
52044;DHT22;38053;53.100;6.078;2022-08-19T02:51:29;14.40;99.90
52044;DHT22;38053;53.100;6.078;2022-08-19T02:53:55;14.40;99.90
52044;DHT22;38053;53.100;6.078;2022-08-19T02:56:22;14.40;99.90
52044;DHT22;38053;53.100;6.078;2022-08-19T02:58:49;14.40;99.90
52044;DHT22;38053;53.100;6.078;2022-08-19T03:01:26;14.40;99.90
52044;DHT22;38053;53.100;6.078;2022-08-19T03:03:52;14.40;99.90
52044;DHT22;38053;53.100;6.078;2022-08-19T03:06:18;14.30;99.90
52044;DHT22;38053;53.100;6.078;2022-08-19T03:08:46;14.30;99.90
52044;DHT22;38053;53.100;6.078;2022-08-19T03:11:24;14.30;99.90
52044;DHT22;38053;53.100;6.078;2022-08-19T03:13:51;14.40;99.90
52044;DHT22;38053;53.100;6.078;2022-08-19T03:16:18;14.40;99.90
52044;DHT22;38053;53.100;6.078;2022-08-19T03:18:44;14.40;99.90
52044;DHT22;38053;53.100;6.078;2022-08-19T03:21:18;14.40;99.90
52044;DHT22;38053;53.100;6.078;2022-08-19T03:23:45;14.30;99.90
52044;DHT22;38053;53.100;6.078;2022-08-19T03:26:11;14.30;99.90
52044;DHT22;38053;53.100;6.078;2022-08-19T03:28:37;14.30;99.90
52044;DHT22;38053;53.100;6.078;2022-08-19T03:31:05;14.30;99.90
52044;DHT22;38053;53.100;6.078;2022-08-19T03:33:33;14.30;99.90
52044;DHT22;38053;53.100;6.078;2022-08-19T03:36:03;14.30;99.90
52044;DHT22;38053;53.100;6.078;2022-08-19T03:38:29;14.30;99.90
52044;DHT22;38053;53.100;6.078;2022-08-19T03:40:55;14.30;99.90
52044;DHT22;38053;53.100;6.078;2022-08-19T03:43:21;14.30;99.90
52044;DHT22;38053;53.100;6.078;2022-08-19T03:45:46;14.30;99.90
52044;DHT22;38053;53.100;6.078;2022-08-19T03:48:14;14.30;99.90
52044;DHT22;38053;53.100;6.078;2022-08-19T03:50:42;14.30;99.90
52044;DHT22;38053;53.100;6.078;2022-08-19T03:53:07;14.40;99.90
52044;DHT22;38053;53.100;6.078;2022-08-19T03:55:39;14.30;99.90
52044;DHT22;38053;53.100;6.078;2022-08-19T03:58:05;14.40;99.90
52044;DHT22;38053;53.100;6.078;2022-08-19T04:00:32;14.40;99.90
52044;DHT22;38053;53.100;6.078;2022-08-19T04:02:58;14.40;99.90
52044;DHT22;38053;53.100;6.078;2022-08-19T04:05:27;14.40;99.90
52044;DHT22;38053;53.100;6.078;2022-08-19T04:07:53;14.40;99.90
52044;DHT22;38053;53.100;6.078;2022-08-19T04:10:20;14.40;99.90
52044;DHT22;38053;53.100;6.078;2022-08-19T04:12:46;14.30;99.90
52044;DHT22;38053;53.100;6.078;2022-08-19T04:15:11;14.30;99.90
52044;DHT22;38053;53.100;6.078;2022-08-19T04:17:37;14.30;99.90
52044;DHT22;38053;53.100;6.078;2022-08-19T04:20:04;14.40;99.90
52044;DHT22;38053;53.100;6.078;2022-08-19T04:22:29;14.30;99.90
52044;DHT22;38053;53.100;6.078;2022-08-19T04:24:55;14.30;99.90
52044;DHT22;38053;53.100;6.078;2022-08-19T04:27:21;14.30;99.90
52044;DHT22;38053;53.100;6.078;2022-08-19T04:29:46;14.30;99.90
52044;DHT22;38053;53.100;6.078;2022-08-19T04:32:13;14.30;99.90
52044;DHT22;38053;53.100;6.078;2022-08-19T04:34:41;14.30;99.90
52044;DHT22;38053;53.100;6.078;2022-08-19T04:37:08;14.30;99.90
52044;DHT22;38053;53.100;6.078;2022-08-19T04:39:38;14.30;99.90
52044;DHT22;38053;53.100;6.078;2022-08-19T04:42:23;14.30;99.90
52044;DHT22;38053;53.100;6.078;2022-08-19T04:45:10;14.40;99.90
52044;DHT22;38053;53.100;6.078;2022-08-19T04:47:41;14.40;99.90
52044;DHT22;38053;53.100;6.078;2022-08-19T04:50:07;14.40;99.90
52044;DHT22;38053;53.100;6.078;2022-08-19T04:52:33;14.40;99.90
52044;DHT22;38053;53.100;6.078;2022-08-19T04:54:59;14.40;99.90
52044;DHT22;38053;53.100;6.078;2022-08-19T04:57:25;14.40;99.90
52044;DHT22;38053;53.100;6.078;2022-08-19T04:59:56;14.40;99.90
52044;DHT22;38053;53.100;6.078;2022-08-19T05:02:22;14.40;99.90
52044;DHT22;38053;53.100;6.078;2022-08-19T05:04:56;14.40;99.90
52044;DHT22;38053;53.100;6.078;2022-08-19T05:07:22;14.40;99.90
52044;DHT22;38053;53.100;6.078;2022-08-19T05:09:48;14.40;99.90
52044;DHT22;38053;53.100;6.078;2022-08-19T05:12:14;14.50;99.90
52044;DHT22;38053;53.100;6.078;2022-08-19T05:14:39;14.50;99.90
52044;DHT22;38053;53.100;6.078;2022-08-19T05:17:05;14.50;99.90
52044;DHT22;38053;53.100;6.078;2022-08-19T05:19:31;14.60;99.90
52044;DHT22;38053;53.100;6.078;2022-08-19T05:22:15;14.70;99.90
52044;DHT22;38053;53.100;6.078;2022-08-19T05:25:11;14.70;99.90
52044;DHT22;38053;53.100;6.078;2022-08-19T05:27:38;14.70;99.90
52044;DHT22;38053;53.100;6.078;2022-08-19T05:30:04;14.80;99.90
52044;DHT22;38053;53.100;6.078;2022-08-19T05:32:30;14.90;99.90
52044;DHT22;38053;53.100;6.078;2022-08-19T05:34:56;14.90;99.90
52044;DHT22;38053;53.100;6.078;2022-08-19T05:37:22;14.90;99.90
52044;DHT22;38053;53.100;6.078;2022-08-19T05:39:48;15.00;99.90
52044;DHT22;38053;53.100;6.078;2022-08-19T05:42:14;15.00;99.90
52044;DHT22;38053;53.100;6.078;2022-08-19T05:44:42;15.10;99.90
52044;DHT22;38053;53.100;6.078;2022-08-19T05:47:10;15.10;99.90
52044;DHT22;38053;53.100;6.078;2022-08-19T05:49:37;15.10;99.90
52044;DHT22;38053;53.100;6.078;2022-08-19T05:52:09;15.20;99.90
52044;DHT22;38053;53.100;6.078;2022-08-19T05:54:37;15.20;99.90
52044;DHT22;38053;53.100;6.078;2022-08-19T05:57:06;15.30;99.90
52044;DHT22;38053;53.100;6.078;2022-08-19T05:59:32;15.30;99.90
52044;DHT22;38053;53.100;6.078;2022-08-19T06:02:01;15.40;99.90
52044;DHT22;38053;53.100;6.078;2022-08-19T06:04:27;15.40;99.90
52044;DHT22;38053;53.100;6.078;2022-08-19T06:06:54;15.50;99.90
52044;DHT22;38053;53.100;6.078;2022-08-19T06:09:21;15.60;99.90
52044;DHT22;38053;53.100;6.078;2022-08-19T06:11:50;15.60;99.90
52044;DHT22;38053;53.100;6.078;2022-08-19T06:14:21;15.60;99.90
52044;DHT22;38053;53.100;6.078;2022-08-19T06:16:48;15.70;99.90
52044;DHT22;38053;53.100;6.078;2022-08-19T06:19:18;15.80;99.90
52044;DHT22;38053;53.100;6.078;2022-08-19T06:21:46;15.90;99.90
52044;DHT22;38053;53.100;6.078;2022-08-19T06:24:18;16.00;99.90
52044;DHT22;38053;53.100;6.078;2022-08-19T06:26:46;16.10;99.90
52044;DHT22;38053;53.100;6.078;2022-08-19T06:29:14;16.10;99.90
52044;DHT22;38053;53.100;6.078;2022-08-19T06:31:44;16.30;99.90
52044;DHT22;38053;53.100;6.078;2022-08-19T06:34:10;16.30;99.90
52044;DHT22;38053;53.100;6.078;2022-08-19T06:36:38;16.40;99.90
52044;DHT22;38053;53.100;6.078;2022-08-19T06:39:08;16.40;99.90
52044;DHT22;38053;53.100;6.078;2022-08-19T06:41:36;16.50;99.90
52044;DHT22;38053;53.100;6.078;2022-08-19T06:44:02;16.60;99.90
52044;DHT22;38053;53.100;6.078;2022-08-19T06:46:28;16.60;99.90
52044;DHT22;38053;53.100;6.078;2022-08-19T06:48:54;16.70;99.90
52044;DHT22;38053;53.100;6.078;2022-08-19T06:51:22;16.80;99.90
52044;DHT22;38053;53.100;6.078;2022-08-19T06:53:50;16.90;99.90
52044;DHT22;38053;53.100;6.078;2022-08-19T06:56:19;17.00;99.90
52044;DHT22;38053;53.100;6.078;2022-08-19T06:58:45;17.10;99.90
52044;DHT22;38053;53.100;6.078;2022-08-19T07:01:12;17.20;99.90
52044;DHT22;38053;53.100;6.078;2022-08-19T07:03:38;17.20;99.90
52044;DHT22;38053;53.100;6.078;2022-08-19T07:06:10;17.30;99.90
52044;DHT22;38053;53.100;6.078;2022-08-19T07:08:38;17.40;99.90
52044;DHT22;38053;53.100;6.078;2022-08-19T07:11:12;17.40;99.90
52044;DHT22;38053;53.100;6.078;2022-08-19T07:13:39;17.50;99.90
52044;DHT22;38053;53.100;6.078;2022-08-19T07:16:10;17.60;99.90
52044;DHT22;38053;53.100;6.078;2022-08-19T07:18:36;17.70;99.90
52044;DHT22;38053;53.100;6.078;2022-08-19T07:21:29;17.70;99.90
52044;DHT22;38053;53.100;6.078;2022-08-19T07:23:56;17.80;99.90
52044;DHT22;38053;53.100;6.078;2022-08-19T07:26:31;17.90;99.90
52044;DHT22;38053;53.100;6.078;2022-08-19T07:28:58;18.00;99.90
52044;DHT22;38053;53.100;6.078;2022-08-19T07:31:26;18.10;99.90
52044;DHT22;38053;53.100;6.078;2022-08-19T07:33:54;18.20;99.90
52044;DHT22;38053;53.100;6.078;2022-08-19T07:36:27;18.20;99.90
52044;DHT22;38053;53.100;6.078;2022-08-19T07:38:59;18.30;99.90
52044;DHT22;38053;53.100;6.078;2022-08-19T07:41:27;18.50;99.90
52044;DHT22;38053;53.100;6.078;2022-08-19T07:43:54;18.60;99.90
52044;DHT22;38053;53.100;6.078;2022-08-19T07:46:20;18.60;99.90
52044;DHT22;38053;53.100;6.078;2022-08-19T07:48:47;18.80;99.90
52044;DHT22;38053;53.100;6.078;2022-08-19T07:51:17;18.90;99.90
52044;DHT22;38053;53.100;6.078;2022-08-19T07:53:44;19.00;99.90
52044;DHT22;38053;53.100;6.078;2022-08-19T07:56:12;19.10;99.90
52044;DHT22;38053;53.100;6.078;2022-08-19T07:58:40;19.20;99.90
52044;DHT22;38053;53.100;6.078;2022-08-19T08:01:09;19.30;99.90
52044;DHT22;38053;53.100;6.078;2022-08-19T08:03:36;19.40;99.90
52044;DHT22;38053;53.100;6.078;2022-08-19T08:06:20;19.50;99.90
52044;DHT22;38053;53.100;6.078;2022-08-19T08:09:05;19.60;99.90
52044;DHT22;38053;53.100;6.078;2022-08-19T08:11:39;19.70;99.90
52044;DHT22;38053;53.100;6.078;2022-08-19T08:14:05;19.80;99.90
52044;DHT22;38053;53.100;6.078;2022-08-19T08:16:40;19.90;99.90
52044;DHT22;38053;53.100;6.078;2022-08-19T08:19:07;20.00;99.90
52044;DHT22;38053;53.100;6.078;2022-08-19T08:21:34;20.10;99.90
52044;DHT22;38053;53.100;6.078;2022-08-19T08:24:00;20.20;99.90
52044;DHT22;38053;53.100;6.078;2022-08-19T08:26:26;20.30;99.90
52044;DHT22;38053;53.100;6.078;2022-08-19T08:28:53;20.40;99.90
52044;DHT22;38053;53.100;6.078;2022-08-19T08:31:19;20.50;99.90
52044;DHT22;38053;53.100;6.078;2022-08-19T08:33:45;20.50;99.90
52044;DHT22;38053;53.100;6.078;2022-08-19T08:36:11;20.60;99.90
52044;DHT22;38053;53.100;6.078;2022-08-19T08:38:39;20.70;99.90
52044;DHT22;38053;53.100;6.078;2022-08-19T08:43:45;20.90;99.90
52044;DHT22;38053;53.100;6.078;2022-08-19T08:49:48;21.20;99.90
52044;DHT22;38053;53.100;6.078;2022-08-19T08:52:31;21.30;99.90
52044;DHT22;38053;53.100;6.078;2022-08-19T08:55:05;21.40;99.90
52044;DHT22;38053;53.100;6.078;2022-08-19T08:57:35;21.60;99.90
52044;DHT22;38053;53.100;6.078;2022-08-19T09:00:05;21.70;99.90
52044;DHT22;38053;53.100;6.078;2022-08-19T09:02:34;21.80;99.90
52044;DHT22;38053;53.100;6.078;2022-08-19T09:05:00;21.90;99.90
52044;DHT22;38053;53.100;6.078;2022-08-19T09:10:23;22.10;99.90
52044;DHT22;38053;53.100;6.078;2022-08-19T09:16:00;22.40;99.90
52044;DHT22;38053;53.100;6.078;2022-08-19T09:18:40;22.70;99.90
52044;DHT22;38053;53.100;6.078;2022-08-19T09:21:06;22.80;99.90
52044;DHT22;38053;53.100;6.078;2022-08-19T09:23:35;22.90;99.90
52044;DHT22;38053;53.100;6.078;2022-08-19T09:26:00;22.90;99.90
52044;DHT22;38053;53.100;6.078;2022-08-19T09:28:26;22.90;99.90
52044;DHT22;38053;53.100;6.078;2022-08-19T09:30:53;22.80;99.90
52044;DHT22;38053;53.100;6.078;2022-08-19T09:33:19;22.80;99.90
52044;DHT22;38053;53.100;6.078;2022-08-19T09:35:45;22.90;99.90
52044;DHT22;38053;53.100;6.078;2022-08-19T09:38:11;23.10;99.90
52044;DHT22;38053;53.100;6.078;2022-08-19T09:40:37;23.30;99.90
52044;DHT22;38053;53.100;6.078;2022-08-19T09:43:04;23.60;99.90
52044;DHT22;38053;53.100;6.078;2022-08-19T09:45:30;23.80;99.90
52044;DHT22;38053;53.100;6.078;2022-08-19T09:47:56;23.70;99.90
52044;DHT22;38053;53.100;6.078;2022-08-19T09:50:22;23.70;99.90
52044;DHT22;38053;53.100;6.078;2022-08-19T09:52:49;23.70;99.90
52044;DHT22;38053;53.100;6.078;2022-08-19T09:55:14;23.70;99.90
52044;DHT22;38053;53.100;6.078;2022-08-19T09:57:41;23.60;99.90
52044;DHT22;38053;53.100;6.078;2022-08-19T10:00:08;23.60;99.90
52044;DHT22;38053;53.100;6.078;2022-08-19T10:02:35;23.70;99.90
52044;DHT22;38053;53.100;6.078;2022-08-19T10:05:01;23.70;99.90
52044;DHT22;38053;53.100;6.078;2022-08-19T10:07:45;23.80;99.90
52044;DHT22;38053;53.100;6.078;2022-08-19T10:10:11;24.00;99.90
52044;DHT22;38053;53.100;6.078;2022-08-19T10:12:37;24.20;99.90
52044;DHT22;38053;53.100;6.078;2022-08-19T10:15:05;24.40;99.90
52044;DHT22;38053;53.100;6.078;2022-08-19T10:17:31;24.70;99.90
52044;DHT22;38053;53.100;6.078;2022-08-19T10:19:59;24.90;99.90
52044;DHT22;38053;53.100;6.078;2022-08-19T10:22:25;25.10;99.90
52044;DHT22;38053;53.100;6.078;2022-08-19T10:24:50;25.30;99.90
52044;DHT22;38053;53.100;6.078;2022-08-19T10:27:17;25.60;99.90
52044;DHT22;38053;53.100;6.078;2022-08-19T10:29:42;25.80;99.90
52044;DHT22;38053;53.100;6.078;2022-08-19T10:32:09;26.00;99.90
52044;DHT22;38053;53.100;6.078;2022-08-19T10:34:37;25.80;99.90
52044;DHT22;38053;53.100;6.078;2022-08-19T10:37:04;25.80;99.90
52044;DHT22;38053;53.100;6.078;2022-08-19T10:39:35;25.80;99.90
52044;DHT22;38053;53.100;6.078;2022-08-19T10:42:06;25.90;99.90
52044;DHT22;38053;53.100;6.078;2022-08-19T10:44:32;26.10;99.90
52044;DHT22;38053;53.100;6.078;2022-08-19T10:46:57;26.20;99.90
52044;DHT22;38053;53.100;6.078;2022-08-19T10:49:24;26.30;99.90
52044;DHT22;38053;53.100;6.078;2022-08-19T10:51:50;26.40;99.90
52044;DHT22;38053;53.100;6.078;2022-08-19T10:54:34;26.50;99.90
52044;DHT22;38053;53.100;6.078;2022-08-19T10:57:18;26.50;99.90
52044;DHT22;38053;53.100;6.078;2022-08-19T10:59:44;26.70;99.90
52044;DHT22;38053;53.100;6.078;2022-08-19T11:02:11;26.80;99.90
52044;DHT22;38053;53.100;6.078;2022-08-19T11:04:38;27.10;99.90
52044;DHT22;38053;53.100;6.078;2022-08-19T11:07:05;27.20;99.90
52044;DHT22;38053;53.100;6.078;2022-08-19T11:09:31;27.10;99.90
52044;DHT22;38053;53.100;6.078;2022-08-19T11:11:57;27.00;99.90
52044;DHT22;38053;53.100;6.078;2022-08-19T11:14:23;26.80;99.90
52044;DHT22;38053;53.100;6.078;2022-08-19T11:16:51;26.50;99.90
52044;DHT22;38053;53.100;6.078;2022-08-19T11:19:21;26.30;99.90
52044;DHT22;38053;53.100;6.078;2022-08-19T11:21:50;26.10;99.90
52044;DHT22;38053;53.100;6.078;2022-08-19T11:24:22;25.80;99.90
52044;DHT22;38053;53.100;6.078;2022-08-19T11:26:49;25.60;99.90
52044;DHT22;38053;53.100;6.078;2022-08-19T11:29:18;25.50;99.90
52044;DHT22;38053;53.100;6.078;2022-08-19T11:31:46;25.30;99.90
52044;DHT22;38053;53.100;6.078;2022-08-19T11:34:24;25.20;99.90
52044;DHT22;38053;53.100;6.078;2022-08-19T11:36:51;25.00;99.90
52044;DHT22;38053;53.100;6.078;2022-08-19T11:39:19;24.90;99.90
52044;DHT22;38053;53.100;6.078;2022-08-19T11:41:46;24.90;99.90
52044;DHT22;38053;53.100;6.078;2022-08-19T11:44:12;24.70;99.90
52044;DHT22;38053;53.100;6.078;2022-08-19T11:46:41;24.50;99.90
52044;DHT22;38053;53.100;6.078;2022-08-19T11:49:11;24.50;99.90
52044;DHT22;38053;53.100;6.078;2022-08-19T11:51:37;24.50;99.90
52044;DHT22;38053;53.100;6.078;2022-08-19T11:54:05;24.70;99.90
52044;DHT22;38053;53.100;6.078;2022-08-19T11:56:30;24.90;99.90
52044;DHT22;38053;53.100;6.078;2022-08-19T11:58:56;25.10;99.90
52044;DHT22;38053;53.100;6.078;2022-08-19T12:01:24;25.20;99.90
52044;DHT22;38053;53.100;6.078;2022-08-19T12:03:51;25.20;99.90
52044;DHT22;38053;53.100;6.078;2022-08-19T12:06:20;25.40;99.90
52044;DHT22;38053;53.100;6.078;2022-08-19T12:08:49;25.70;99.90
52044;DHT22;38053;53.100;6.078;2022-08-19T12:11:15;25.90;99.90
52044;DHT22;38053;53.100;6.078;2022-08-19T12:13:41;26.30;99.90
52044;DHT22;38053;53.100;6.078;2022-08-19T12:16:23;26.70;99.90
52044;DHT22;38053;53.100;6.078;2022-08-19T12:18:49;26.70;99.90
52044;DHT22;38053;53.100;6.078;2022-08-19T12:21:19;26.50;99.90
52044;DHT22;38053;53.100;6.078;2022-08-19T12:23:48;26.30;99.90
52044;DHT22;38053;53.100;6.078;2022-08-19T12:26:15;26.10;99.90
52044;DHT22;38053;53.100;6.078;2022-08-19T12:28:42;25.80;99.90
52044;DHT22;38053;53.100;6.078;2022-08-19T12:31:08;25.60;99.90
52044;DHT22;38053;53.100;6.078;2022-08-19T12:33:37;25.50;99.90
52044;DHT22;38053;53.100;6.078;2022-08-19T12:36:05;25.50;99.90
52044;DHT22;38053;53.100;6.078;2022-08-19T12:38:32;25.50;99.90
52044;DHT22;38053;53.100;6.078;2022-08-19T12:40:58;25.50;99.90
52044;DHT22;38053;53.100;6.078;2022-08-19T12:43:24;25.50;99.90
52044;DHT22;38053;53.100;6.078;2022-08-19T12:45:49;25.40;99.90
52044;DHT22;38053;53.100;6.078;2022-08-19T12:48:16;25.40;99.90
52044;DHT22;38053;53.100;6.078;2022-08-19T12:50:43;25.40;99.90
52044;DHT22;38053;53.100;6.078;2022-08-19T12:53:11;25.30;99.90
52044;DHT22;38053;53.100;6.078;2022-08-19T12:55:37;25.20;99.90
52044;DHT22;38053;53.100;6.078;2022-08-19T12:58:03;25.10;99.90
52044;DHT22;38053;53.100;6.078;2022-08-19T13:00:29;25.00;99.90
52044;DHT22;38053;53.100;6.078;2022-08-19T13:02:56;24.90;99.90
52044;DHT22;38053;53.100;6.078;2022-08-19T13:05:30;24.80;99.90
52044;DHT22;38053;53.100;6.078;2022-08-19T13:07:58;24.70;99.90
52044;DHT22;38053;53.100;6.078;2022-08-19T13:10:27;24.50;99.90
52044;DHT22;38053;53.100;6.078;2022-08-19T13:12:54;24.40;99.90
52044;DHT22;38053;53.100;6.078;2022-08-19T13:15:22;24.40;99.90
52044;DHT22;38053;53.100;6.078;2022-08-19T13:17:49;24.40;99.90
52044;DHT22;38053;53.100;6.078;2022-08-19T13:20:17;24.40;99.90
52044;DHT22;38053;53.100;6.078;2022-08-19T13:22:44;24.30;99.90
52044;DHT22;38053;53.100;6.078;2022-08-19T13:25:11;24.30;99.90
52044;DHT22;38053;53.100;6.078;2022-08-19T13:27:37;24.30;99.90
52044;DHT22;38053;53.100;6.078;2022-08-19T13:30:04;24.20;99.90
52044;DHT22;38053;53.100;6.078;2022-08-19T13:32:49;24.20;99.90
52044;DHT22;38053;53.100;6.078;2022-08-19T13:35:33;24.20;99.90
52044;DHT22;38053;53.100;6.078;2022-08-19T13:37:59;24.10;99.90
52044;DHT22;38053;53.100;6.078;2022-08-19T13:40:31;24.00;99.90
52044;DHT22;38053;53.100;6.078;2022-08-19T13:43:00;23.80;99.90
52044;DHT22;38053;53.100;6.078;2022-08-19T13:45:28;23.60;99.90
52044;DHT22;38053;53.100;6.078;2022-08-19T13:47:55;23.50;99.90
52044;DHT22;38053;53.100;6.078;2022-08-19T13:50:26;23.40;99.90
52044;DHT22;38053;53.100;6.078;2022-08-19T13:52:53;23.30;99.90
52044;DHT22;38053;53.100;6.078;2022-08-19T13:55:20;23.20;99.90
52044;DHT22;38053;53.100;6.078;2022-08-19T13:57:50;23.10;99.90
52044;DHT22;38053;53.100;6.078;2022-08-19T14:00:18;23.20;99.90
52044;DHT22;38053;53.100;6.078;2022-08-19T14:02:46;23.20;99.90
52044;DHT22;38053;53.100;6.078;2022-08-19T14:05:14;23.30;99.90
52044;DHT22;38053;53.100;6.078;2022-08-19T14:07:40;23.50;99.90
52044;DHT22;38053;53.100;6.078;2022-08-19T14:10:09;23.60;99.90
52044;DHT22;38053;53.100;6.078;2022-08-19T14:12:36;23.60;99.90
52044;DHT22;38053;53.100;6.078;2022-08-19T14:15:03;23.70;99.90
52044;DHT22;38053;53.100;6.078;2022-08-19T14:17:29;23.70;99.90
52044;DHT22;38053;53.100;6.078;2022-08-19T14:19:59;23.80;99.90
52044;DHT22;38053;53.100;6.078;2022-08-19T14:22:26;23.80;99.90
52044;DHT22;38053;53.100;6.078;2022-08-19T14:24:52;23.90;99.90
52044;DHT22;38053;53.100;6.078;2022-08-19T14:27:18;24.00;99.90
52044;DHT22;38053;53.100;6.078;2022-08-19T14:29:43;24.10;99.90
52044;DHT22;38053;53.100;6.078;2022-08-19T14:32:10;24.30;99.90
52044;DHT22;38053;53.100;6.078;2022-08-19T14:34:35;24.30;99.90
52044;DHT22;38053;53.100;6.078;2022-08-19T14:37:03;24.40;99.90
52044;DHT22;38053;53.100;6.078;2022-08-19T14:39:28;24.50;99.90
52044;DHT22;38053;53.100;6.078;2022-08-19T14:41:54;24.50;99.90
52044;DHT22;38053;53.100;6.078;2022-08-19T14:44:19;24.50;99.90
52044;DHT22;38053;53.100;6.078;2022-08-19T14:46:45;24.60;99.90
52044;DHT22;38053;53.100;6.078;2022-08-19T14:49:11;24.60;99.90
52044;DHT22;38053;53.100;6.078;2022-08-19T14:51:37;24.60;99.90
52044;DHT22;38053;53.100;6.078;2022-08-19T14:54:03;24.60;99.90
52044;DHT22;38053;53.100;6.078;2022-08-19T14:56:29;24.70;99.90
52044;DHT22;38053;53.100;6.078;2022-08-19T14:58:56;24.70;99.90
52044;DHT22;38053;53.100;6.078;2022-08-19T15:01:25;24.70;99.90
52044;DHT22;38053;53.100;6.078;2022-08-19T15:03:51;25.00;99.90
52044;DHT22;38053;53.100;6.078;2022-08-19T15:06:22;25.20;99.90
52044;DHT22;38053;53.100;6.078;2022-08-19T15:08:48;25.40;99.90
52044;DHT22;38053;53.100;6.078;2022-08-19T15:11:17;25.30;99.90
52044;DHT22;38053;53.100;6.078;2022-08-19T15:13:46;25.30;99.90
52044;DHT22;38053;53.100;6.078;2022-08-19T15:16:13;25.30;99.90
52044;DHT22;38053;53.100;6.078;2022-08-19T15:18:41;25.40;99.90
52044;DHT22;38053;53.100;6.078;2022-08-19T15:21:12;25.40;99.90
52044;DHT22;38053;53.100;6.078;2022-08-19T15:23:39;25.40;99.90
52044;DHT22;38053;53.100;6.078;2022-08-19T15:26:05;25.30;99.90
52044;DHT22;38053;53.100;6.078;2022-08-19T15:28:34;25.20;99.90
52044;DHT22;38053;53.100;6.078;2022-08-19T15:31:00;25.00;99.90
52044;DHT22;38053;53.100;6.078;2022-08-19T15:33:26;24.90;99.90
52044;DHT22;38053;53.100;6.078;2022-08-19T15:35:52;24.90;99.90
52044;DHT22;38053;53.100;6.078;2022-08-19T15:38:19;24.80;99.90
52044;DHT22;38053;53.100;6.078;2022-08-19T15:40:47;24.70;99.90
52044;DHT22;38053;53.100;6.078;2022-08-19T15:43:14;24.60;99.90
52044;DHT22;38053;53.100;6.078;2022-08-19T15:45:41;24.50;99.90
52044;DHT22;38053;53.100;6.078;2022-08-19T15:48:07;24.50;99.90